Vestavia, Alabama
Current Conditions -  °F | °C
As of 1:53 PM on Thursday 27 Nov 2014 (Local Time) from KBHM Reporting Station
Broken Clouds Broken Clouds  
Wind Chill: 40°   Ceiling: 3700
Heat Index: 45°   Visibility: 10mi
Dew Point: 30°   Wind: 10mph
Humidity: 56%   Direction: 10°N
Pressure: 30.39"   Gusts: NA
Location:  33.465°N, 86.8113°W
Report Text: KBHM 271953Z 01009KT 10SM BKN037 BKN047 07/M01 A3039 RMK AO2 SLP291 T00721011
Loading
Personal Weather Stations






























Interactive Weather Map New forecast layout! Learn more

10-Day Weather Forecast

Advertisements
Track Severe Weather on mobile